Time;durP1;ratioP1;P1;durP2;ratioP2;P2;SDS_P1;SDS_P2;PMS_P1;PMS_P2;Temp;Humidity;BMP_temperature;BMP_pressure;BME280_temperature;BME280_humidity;BME280_pressure;Samples;Min_cycle;Max_cycle;Signal;HPM_P1;HPM_P2
2022/08/10 00:00:45;;;;;;;4.82;2.22;;;;;;;20.41;48.87;101396.72;4986871;28;20046;-52
2022/08/10 00:03:11;;;;;;;4.32;2.88;;;;;;;20.37;48.86;101393.28;4995473;28;20058;-51
2022/08/10 00:05:38;;;;;;;4.78;2.45;;;;;;;20.35;48.79;101383.69;4993039;28;20104;-53
2022/08/10 00:08:18;;;;;;;7.53;2.70;;;;;;;20.29;49.23;101385.56;4992605;28;20152;-52
2022/08/10 00:10:52;;;;;;;5.90;3.08;;;;;;;20.28;48.90;101385.59;4996534;28;20407;-52
2022/08/10 00:13:19;;;;;;;4.88;2.70;;;;;;;20.25;48.76;101391.78;4999542;28;20049;-55
2022/08/10 00:15:46;;;;;;;4.30;2.80;;;;;;;20.23;48.97;101387.47;5001088;28;20103;-52
2022/08/10 00:18:22;;;;;;;3.90;2.58;;;;;;;20.18;48.85;101384.94;5001365;28;20100;-51
2022/08/10 00:21:04;;;;;;;6.93;2.60;;;;;;;20.14;49.25;101384.16;5000801;28;20054;-49
2022/08/10 00:23:31;;;;;;;4.72;2.70;;;;;;;20.11;49.05;101383.34;4997224;28;20046;-49
2022/08/10 00:25:57;;;;;;;4.13;2.30;;;;;;;20.08;49.35;101379.00;5003768;28;20050;-46
2022/08/10 00:28:24;;;;;;;2.90;2.20;;;;;;;20.05;48.69;101381.69;5004433;28;20708;-52
2022/08/10 00:30:51;;;;;;;5.70;3.00;;;;;;;20.02;49.31;101385.25;4997450;28;20051;-48
2022/08/10 00:33:17;;;;;;;4.40;3.17;;;;;;;19.99;49.15;101377.44;4997337;28;20100;-50
2022/08/10 00:35:44;;;;;;;6.10;3.47;;;;;;;19.95;48.96;101367.84;4999257;28;20077;-47
2022/08/10 00:38:11;;;;;;;11.30;2.78;;;;;;;19.91;49.65;101371.44;4998893;28;20054;-50
2022/08/10 00:40:38;;;;;;;4.65;3.58;;;;;;;19.88;49.08;101366.25;4999305;28;20057;-48
2022/08/10 00:43:05;;;;;;;4.97;2.83;;;;;;;19.83;49.42;101374.25;5002344;28;20042;-47
2022/08/10 00:45:33;;;;;;;4.82;3.42;;;;;;;19.77;49.38;101374.34;4995773;28;20545;-51
2022/08/10 00:48:01;;;;;;;6.07;3.13;;;;;;;19.71;49.56;101367.47;5000433;28;20108;-51
2022/08/10 00:50:28;;;;;;;4.80;2.85;;;;;;;19.67;49.39;101367.53;4996932;28;20105;-52
2022/08/10 00:52:54;;;;;;;3.53;2.22;;;;;;;19.62;49.76;101367.66;4995339;28;20066;-50
2022/08/10 00:55:22;;;;;;;5.55;2.85;;;;;;;19.59;49.98;101372.97;5002096;28;20049;-50
2022/08/10 00:57:49;;;;;;;6.53;2.97;;;;;;;19.53;50.02;101366.91;5000348;28;20077;-47
2022/08/10 01:00:22;;;;;;;4.35;1.90;;;;;;;19.48;50.17;101371.41;4993643;28;20473;-50
2022/08/10 01:02:49;;;;;;;4.68;3.17;;;;;;;19.44;49.85;101367.09;5002616;28;20061;-52
2022/08/10 01:05:18;;;;;;;4.60;3.28;;;;;;;19.39;50.71;101366.34;4997214;28;20577;-49
2022/08/10 01:10:55;;;;;;;3.83;1.73;;;;;;;19.25;50.66;101361.34;5017431;27;20472;-48
2022/08/10 01:27:21;;;;;;;3.97;2.67;;;;;;;19.25;50.72;101346.41;5048530;28;20398;-48
2022/08/10 01:38:02;;;;;;;5.18;3.55;;;;;;;18.97;51.38;101346.88;5018145;27;20414;-49
2022/08/10 01:40:34;;;;;;;5.70;3.22;;;;;;;18.92;51.11;101342.59;5023518;28;20108;-48
2022/08/10 01:43:03;;;;;;;4.30;3.05;;;;;;;18.87;50.72;101347.94;4999047;28;20101;-49
2022/08/10 01:45:37;;;;;;;6.97;3.25;;;;;;;18.79;50.65;101342.81;4998110;28;20058;-50
2022/08/10 01:48:34;;;;;;;4.82;3.35;;;;;;;18.73;50.89;101343.78;5026593;28;20482;-51
2022/08/10 01:53:57;;;;;;;5.93;3.20;;;;;;;19.14;51.40;101338.75;5093286;27;20384;-48
2022/08/10 01:56:27;;;;;;;5.38;2.78;;;;;;;18.77;51.74;101344.59;5060262;28;20053;-46
2022/08/10 01:58:57;;;;;;;;;;;;;;;18.41;52.02;101342.50;5081607;28;20070;-47
2022/08/10 02:01:27;;;;;;;8.18;2.45;;;;;;;18.57;51.80;101337.03;5073166;28;19920;-45
2022/08/10 02:03:58;;;;;;;4.57;2.20;;;;;;;18.54;51.83;101342.34;5081285;28;20133;-49
2022/08/10 02:06:35;;;;;;;4.22;2.10;;;;;;;18.48;51.91;101338.91;5077211;28;20147;-46
2022/08/10 02:09:04;;;;;;;7.38;2.30;;;;;;;18.44;51.81;101337.22;5070293;28;20040;-49
2022/08/10 02:11:35;;;;;;;4.80;2.63;;;;;;;18.43;51.57;101337.25;5076620;28;20103;-46
2022/08/10 02:14:23;;;;;;;;;;;;;;;18.13;51.56;101332.41;5077086;28;20080;-45
2022/08/10 02:16:51;;;;;;;5.18;2.25;;;;;;;18.31;52.14;101335.69;5075534;28;19920;-46
2022/08/10 02:19:22;;;;;;;5.03;2.40;;;;;;;18.30;51.36;101337.44;5096350;28;20044;-45
2022/08/10 02:21:51;;;;;;;6.55;2.25;;;;;;;18.27;52.18;101334.00;5097736;28;20048;-46
2022/08/10 02:24:40;;;;;;;4.90;2.58;;;;;;;18.22;51.68;101334.94;5094425;28;20128;-47
2022/08/10 02:27:08;;;;;;;7.07;2.65;;;;;;;18.18;51.84;101330.63;5094491;28;20043;-47
2022/08/10 02:29:36;;;;;;;7.05;1.88;;;;;;;18.13;51.89;101332.41;5092432;28;21712;-49
2022/08/10 02:32:09;;;;;;;4.72;2.90;;;;;;;18.09;52.40;101333.34;5092064;28;20045;-50
2022/08/10 02:34:38;;;;;;;6.32;2.83;;;;;;;18.07;52.15;101338.59;5090014;28;20059;-46
2022/08/10 02:37:08;;;;;;;7.95;2.80;;;;;;;18.05;52.49;101340.38;5098894;28;20079;-49
2022/08/10 02:39:37;;;;;;;5.22;2.53;;;;;;;18.02;52.34;101334.28;5089629;28;20058;-47
2022/08/10 02:42:15;;;;;;;6.30;3.05;;;;;;;17.97;52.76;101337.84;5096073;28;20514;-50
2022/08/10 02:45:16;;;;;;;5.05;2.78;;;;;;;17.91;52.08;101335.31;5084754;28;20048;-48
2022/08/10 02:48:05;;;;;;;5.03;2.55;;;;;;;17.89;51.91;101334.44;5074651;28;20056;-49
2022/08/10 02:50:35;;;;;;;;;;;;;;;17.63;52.41;101330.38;5078465;28;20102;-50
2022/08/10 02:53:13;;;;;;;4.90;2.80;;;;;;;17.77;53.04;101324.13;5096471;28;19927;-50
2022/08/10 02:56:15;;;;;;;6.50;3.13;;;;;;;17.75;52.47;101331.13;5092255;28;20133;-51
2022/08/10 02:58:44;;;;;;;7.18;2.53;;;;;;;17.78;52.95;101336.34;5100094;28;20113;-51
2022/08/10 03:01:15;;;;;;;4.47;2.70;;;;;;;17.76;52.78;101338.13;5090677;28;20048;-47
2022/08/10 03:03:50;;;;;;;5.15;2.67;;;;;;;17.72;53.22;101332.91;5091290;27;20048;-45
2022/08/10 03:06:24;;;;;;;5.45;2.88;;;;;;;17.68;52.97;101339.09;5072750;28;20434;-49
2022/08/10 03:08:53;;;;;;;4.75;2.47;;;;;;;17.66;52.78;101340.84;5059093;28;20085;-48
2022/08/10 03:11:26;;;;;;;7.68;2.97;;;;;;;17.61;53.29;101345.28;5060487;28;20114;-48
2022/08/10 03:14:15;;;;;;;7.90;3.13;;;;;;;17.56;52.77;101337.47;5082710;28;20662;-48
2022/08/10 03:16:43;;;;;;;6.53;3.28;;;;;;;17.54;53.19;101344.50;5081403;28;20044;-46
2022/08/10 03:19:11;;;;;;;5.80;2.72;;;;;;;17.51;52.97;101343.63;5076757;28;20111;-45
2022/08/10 03:21:59;;;;;;;4.57;2.90;;;;;;;17.42;53.56;101335.00;5079017;28;20139;-47
2022/08/10 03:24:27;;;;;;;7.03;3.17;;;;;;;17.41;53.53;101343.75;5084186;28;21955;-46
2022/08/10 03:26:59;;;;;;;4.97;2.47;;;;;;;17.37;53.74;101338.53;5072500;28;20073;-49
2022/08/10 03:29:27;;;;;;;6.95;2.65;;;;;;;17.35;53.82;101338.56;5086757;28;20048;-52
2022/08/10 03:31:55;;;;;;;5.38;2.85;;;;;;;17.31;53.68;101342.97;5088558;28;20689;-52
2022/08/10 03:34:24;;;;;;;5.82;3.05;;;;;;;17.28;53.54;101332.53;5077918;28;20381;-46
2022/08/10 03:36:59;;;;;;;5.45;2.70;;;;;;;17.24;54.05;101325.59;5076381;28;20072;-46
2022/08/10 03:39:27;;;;;;;4.50;2.53;;;;;;;17.23;53.77;101333.47;5069957;28;20047;-47
2022/08/10 03:41:58;;;;;;;6.00;2.70;;;;;;;17.21;54.43;101330.84;5061122;28;20132;-48
2022/08/10 03:44:30;;;;;;;4.50;2.88;;;;;;;17.17;54.11;101330.03;5060953;28;20049;-50
2022/08/10 03:46:59;;;;;;;7.72;2.97;;;;;;;17.12;54.45;101331.81;5076241;28;20048;-48
2022/08/10 03:49:28;;;;;;;8.65;3.38;;;;;;;17.09;54.60;101329.19;5062519;28;20048;-45
2022/08/10 03:51:57;;;;;;;5.72;2.80;;;;;;;17.07;54.57;101324.00;5060762;28;20086;-50
2022/08/10 03:54:24;;;;;;;6.63;2.83;;;;;;;17.04;54.88;101318.78;5065865;28;20044;-47
2022/08/10 03:56:52;;;;;;;3.80;2.47;;;;;;;17.03;54.22;101317.03;5077357;28;20158;-48
2022/08/10 03:59:19;;;;;;;5.07;2.55;;;;;;;17.02;54.05;101309.19;5080482;28;20798;-44
2022/08/10 04:01:46;;;;;;;6.15;2.85;;;;;;;16.99;54.26;101315.31;5077588;28;20098;-48
2022/08/10 04:04:33;;;;;;;5.25;3.03;;;;;;;16.95;54.92;101317.09;5075531;28;20135;-49
2022/08/10 04:07:01;;;;;;;5.18;2.95;;;;;;;16.95;54.65;101317.09;5079965;28;20044;-48
2022/08/10 04:09:30;;;;;;;5.25;2.45;;;;;;;16.93;54.20;101321.47;5078078;28;20074;-48
2022/08/10 04:12:17;;;;;;;5.47;2.90;;;;;;;16.91;54.53;101317.13;5077865;28;20105;-45
2022/08/10 04:14:43;;;;;;;7.18;3.05;;;;;;;16.89;54.76;101322.38;5080575;28;20507;-46
2022/08/10 04:17:23;;;;;;;5.93;3.08;;;;;;;16.86;55.04;101319.81;5079834;28;20040;-48
2022/08/10 04:22:55;;;;;;;6.53;3.00;;;;;;;16.81;54.32;101326.81;4999472;27;21967;-48
2022/08/10 04:25:26;;;;;;;6.97;3.05;;;;;;;16.79;55.04;101323.34;5032573;28;20058;-43
2022/08/10 04:27:54;;;;;;;5.90;3.00;;;;;;;16.77;54.84;101330.34;4999993;28;20042;-47
2022/08/10 04:30:21;;;;;;;5.75;3.28;;;;;;;16.75;55.10;101326.88;5001468;28;20083;-46
2022/08/10 04:32:52;;;;;;;5.63;3.20;;;;;;;16.75;55.16;101332.97;5003100;28;20396;-48
2022/08/10 04:35:22;;;;;;;7.63;5.15;;;;;;;16.73;55.13;101326.88;4998115;28;20917;-47
2022/08/10 04:37:50;;;;;;;6.15;3.00;;;;;;;16.72;55.30;101332.97;4997921;28;20054;-48
2022/08/10 04:40:18;;;;;;;5.15;3.13;;;;;;;16.70;55.49;101330.41;5030446;28;20042;-48
2022/08/10 04:42:56;;;;;;;8.00;3.70;;;;;;;16.69;55.29;101333.03;5027731;28;20046;-49
2022/08/10 04:45:29;;;;;;;7.85;3.55;;;;;;;16.69;55.62;101344.34;4998093;28;20068;-47
2022/08/10 04:48:16;;;;;;;9.18;4.35;;;;;;;16.68;55.36;101336.50;4998420;28;20065;-49
2022/08/10 04:51:03;;;;;;;6.82;3.20;;;;;;;16.66;56.00;101333.91;5003718;28;20128;-49
2022/08/10 04:53:30;;;;;;;9.45;3.35;;;;;;;16.64;56.47;101330.44;5003632;28;20050;-52
2022/08/10 04:55:57;;;;;;;7.47;3.22;;;;;;;16.63;55.99;101328.72;5004555;28;20054;-49
2022/08/10 04:58:23;;;;;;;8.60;4.00;;;;;;;16.62;56.17;101321.72;4993706;28;20057;-48
2022/08/10 05:00:50;;;;;;;7.00;3.17;;;;;;;16.61;55.74;101330.44;4998944;28;20054;-53
2022/08/10 05:03:17;;;;;;;6.82;3.25;;;;;;;16.60;56.13;101330.47;4997399;28;20108;-47
2022/08/10 05:05:43;;;;;;;6.10;3.03;;;;;;;16.59;56.01;101327.00;5000802;28;20054;-50
2022/08/10 05:08:10;;;;;;;5.95;3.35;;;;;;;16.60;55.68;101322.63;5002241;28;20136;-50
2022/08/10 05:10:36;;;;;;;4.88;3.13;;;;;;;16.58;56.04;101331.34;4997779;28;20046;-47
2022/08/10 05:13:03;;;;;;;4.35;2.65;;;;;;;16.59;56.28;101316.53;5002019;28;20104;-48
2022/08/10 05:15:30;;;;;;;6.60;2.75;;;;;;;16.61;55.96;101322.59;4998698;28;20054;-49
2022/08/10 05:17:57;;;;;;;6.10;2.55;;;;;;;16.61;56.21;101319.13;5000561;28;20101;-49
2022/08/10 05:20:35;;;;;;;7.30;3.50;;;;;;;16.62;56.88;101315.63;4998278;28;20073;-47
2022/08/10 05:23:02;;;;;;;6.20;2.97;;;;;;;16.61;56.26;101321.75;4999839;28;20039;-44
2022/08/10 05:25:29;;;;;;;8.63;2.90;;;;;;;16.61;56.61;101319.13;5000027;28;20575;-48
2022/08/10 05:27:58;;;;;;;;;;;;;;;16.44;56.78;101320.09;4994569;28;20057;-50
2022/08/10 05:30:31;;;;;;;8.45;2.80;;;;;;;16.63;56.39;101328.72;4997888;28;20024;-46
2022/08/10 05:32:58;;;;;;;6.70;2.80;;;;;;;16.69;56.59;101333.88;4995035;28;20054;-46
2022/08/10 05:35:32;;;;;;;5.40;2.83;;;;;;;16.78;57.47;101332.06;4988750;28;20124;-45
2022/08/10 05:38:21;;;;;;;10.90;3.45;;;;;;;16.93;57.14;101336.31;4986117;28;20081;-47
2022/08/10 05:40:48;;;;;;;10.23;3.90;;;;;;;17.10;57.73;101338.81;4982245;28;20109;-44
2022/08/10 05:43:17;;;;;;;5.57;3.28;;;;;;;17.30;57.29;101335.13;4985286;28;20046;-45
2022/08/10 05:45:44;;;;;;;9.65;3.78;;;;;;;17.47;57.41;101343.66;4986171;28;20053;-48
2022/08/10 05:48:32;;;;;;;8.35;3.90;;;;;;;17.64;57.87;101340.00;4983320;28;20046;-48
2022/08/10 05:51:19;;;;;;;7.43;3.60;;;;;;;17.85;57.71;101348.47;4981405;28;20479;-50
2022/08/10 05:53:47;;;;;;;8.32;4.22;;;;;;;18.04;57.54;101348.25;4980701;28;20113;-46
2022/08/10 05:56:34;;;;;;;7.45;4.00;;;;;;;18.24;56.76;101346.25;4987256;28;20050;-47
2022/08/10 05:59:22;;;;;;;13.57;3.75;;;;;;;18.41;56.72;101342.50;4987956;28;20078;-50
2022/08/10 06:02:12;;;;;;;8.75;3.45;;;;;;;18.49;55.51;101345.91;4987984;28;20722;-44
2022/08/10 06:05:05;;;;;;;13.50;4.63;;;;;;;18.42;55.61;101349.50;4963312;28;20086;-47
2022/08/10 06:07:35;;;;;;;7.65;3.58;;;;;;;18.39;56.02;101354.78;4976642;28;20046;-51
2022/08/10 06:10:03;;;;;;;7.15;3.05;;;;;;;18.34;55.34;101351.38;4979011;28;20157;-47
2022/08/10 06:12:38;;;;;;;6.35;3.10;;;;;;;18.28;55.44;101356.69;4982219;28;20058;-48
2022/08/10 06:15:23;;;;;;;8.38;2.95;;;;;;;18.21;54.99;101356.78;4978491;28;20603;-49
2022/08/10 06:18:12;;;;;;;8.18;3.33;;;;;;;18.17;54.92;101360.34;4983466;28;20079;-47
2022/08/10 06:20:38;;;;;;;7.40;2.97;;;;;;;18.14;54.94;101355.16;4978197;28;20065;-49
2022/08/10 06:23:05;;;;;;;9.85;3.80;;;;;;;18.11;55.46;101361.28;4984355;28;20433;-48
2022/08/10 06:25:32;;;;;;;8.73;2.53;;;;;;;18.09;55.16;101359.56;4978340;28;20108;-48
2022/08/10 06:28:20;;;;;;;10.43;3.25;;;;;;;18.10;55.80;101363.91;4982671;28;20129;-51
2022/08/10 06:30:50;;;;;;;7.75;2.92;;;;;;;18.09;56.18;101356.94;4988661;28;20723;-50
2022/08/10 06:33:19;;;;;;;8.82;3.63;;;;;;;18.10;55.56;101358.69;4984436;28;20112;-45
2022/08/10 06:35:52;;;;;;;7.50;3.05;;;;;;;18.17;55.69;101355.09;4982126;28;20051;-48
2022/08/10 06:38:22;;;;;;;10.23;3.15;;;;;;;18.48;55.84;101345.94;4986912;28;20973;-51
2022/08/10 06:40:53;;;;;;;7.07;3.00;;;;;;;18.90;56.00;101350.50;4985849;28;20043;-47
2022/08/10 06:43:23;;;;;;;7.75;3.20;;;;;;;19.31;55.53;101352.44;4980722;28;20046;-48
2022/08/10 06:45:54;;;;;;;5.95;3.03;;;;;;;19.71;55.22;101354.31;4975173;28;20084;-48
2022/08/10 06:48:36;;;;;;;;;;;;;;;20.17;54.62;101368.28;4979703;28;20046;-50
2022/08/10 06:51:06;;;;;;;9.75;3.05;;;;;;;20.64;54.34;101361.09;4987990;28;19929;-49
2022/08/10 06:53:36;;;;;;;7.22;2.90;;;;;;;21.03;53.80;101368.94;4977592;28;20051;-52
2022/08/10 06:56:23;;;;;;;5.70;2.83;;;;;;;21.42;53.15;101364.44;4982178;28;20384;-46
2022/08/10 06:59:11;;;;;;;3.92;2.10;;;;;;;21.76;52.92;101362.66;4965753;28;20521;-50
2022/08/10 07:01:52;;;;;;;5.80;2.45;;;;;;;22.14;51.91;101367.69;4977835;28;20081;-50
2022/08/10 07:04:31;;;;;;;3.72;2.33;;;;;;;22.44;50.47;101365.88;4979313;28;20733;-49
2022/08/10 07:07:03;;;;;;;4.82;3.28;;;;;;;22.71;49.37;101368.59;4980186;28;20438;-51
2022/08/10 07:09:34;;;;;;;5.10;2.28;;;;;;;22.98;48.85;101370.34;4977789;28;20100;-46
2022/08/10 07:12:02;;;;;;;7.43;2.20;;;;;;;23.32;48.50;101374.47;4979619;28;20109;-50
2022/08/10 07:14:40;;;;;;;4.70;2.30;;;;;;;23.64;48.21;101368.09;4978006;28;20078;-51
2022/08/10 07:17:10;;;;;;;3.95;1.65;;;;;;;23.95;47.24;101372.22;4978444;28;20043;-54
2022/08/10 07:19:46;;;;;;;10.32;1.58;;;;;;;24.22;46.40;101370.31;4980047;28;20038;-49
2022/08/10 07:22:20;;;;;;;7.30;2.25;;;;;;;24.58;46.06;101365.41;4977596;28;20104;-48
2022/08/10 07:25:09;;;;;;;7.63;1.77;;;;;;;24.94;45.45;101363.94;4975946;28;20112;-46
2022/08/10 07:27:38;;;;;;;3.22;1.60;;;;;;;25.25;44.81;101359.97;4977523;28;20115;-53
2022/08/10 07:30:27;;;;;;;3.55;1.70;;;;;;;25.58;44.25;101366.53;4979307;28;20050;-50
2022/08/10 07:32:55;;;;;;;3.35;1.23;;;;;;;25.79;43.45;101362.03;4982942;28;20064;-50
2022/08/10 07:35:25;;;;;;;2.75;1.48;;;;;;;26.06;43.03;101361.66;4981629;28;20050;-51
2022/08/10 07:37:53;;;;;;;4.20;1.40;;;;;;;26.36;42.57;101355.84;4978495;28;20053;-52
2022/08/10 07:40:21;;;;;;;4.40;2.13;;;;;;;26.62;42.44;101353.69;4980070;28;20109;-53
2022/08/10 07:42:52;;;;;;;3.90;1.73;;;;;;;26.86;41.79;101355.19;4979968;28;20113;-51
2022/08/10 07:45:19;;;;;;;4.55;1.83;;;;;;;27.10;40.66;101358.41;4977064;28;20065;-47
2022/08/10 07:48:05;;;;;;;3.33;1.70;;;;;;;27.39;40.09;101363.13;4982045;28;20819;-47
2022/08/10 07:50:37;;;;;;;2.83;1.48;;;;;;;27.48;39.45;101359.13;4980702;28;20047;-50
2022/08/10 07:53:09;;;;;;;5.30;1.50;;;;;;;27.56;39.12;101356.91;4976862;28;20054;-49
2022/08/10 07:55:40;;;;;;;4.72;1.30;;;;;;;27.71;38.70;101353.44;4975382;28;20118;-51
2022/08/10 07:58:30;;;;;;;3.42;1.40;;;;;;;27.92;38.49;101361.19;4976264;28;20113;-51
2022/08/10 08:00:58;;;;;;;3.50;1.20;;;;;;;28.09;38.43;101356.69;4974422;28;20058;-53
2022/08/10 08:03:28;;;;;;;3.83;1.38;;;;;;;28.23;37.71;101359.44;4980675;28;20050;-54
2022/08/10 08:05:56;;;;;;;3.42;1.13;;;;;;;28.22;37.68;101352.41;4976561;28;20050;-53
2022/08/10 08:08:39;;;;;;;4.53;1.05;;;;;;;28.30;37.67;101348.50;4977063;28;20057;-55
2022/08/10 08:11:07;;;;;;;;;;;;;;;28.68;38.40;101348.06;4981887;28;20046;-51
2022/08/10 08:13:36;;;;;;;2.70;1.60;;;;;;;28.72;35.97;101349.59;4977012;28;20286;-52
2022/08/10 08:16:04;;;;;;;3.15;1.42;;;;;;;28.79;36.50;101350.06;4977558;28;20631;-54
2022/08/10 08:18:48;;;;;;;4.13;1.10;;;;;;;28.99;35.84;101351.59;4989474;28;20046;-55
2022/08/10 08:21:36;;;;;;;5.03;1.27;;;;;;;29.18;35.69;101345.09;4975890;28;20137;-50
2022/08/10 08:24:24;;;;;;;2.08;1.10;;;;;;;29.28;35.32;101344.56;4982835;28;20054;-54
2022/08/10 08:27:01;;;;;;;3.50;1.38;;;;;;;29.39;35.02;101344.75;4985761;28;20066;-54
2022/08/10 08:29:32;;;;;;;2.65;1.58;;;;;;;29.51;34.94;101345.78;4974388;28;20060;-55
2022/08/10 08:32:01;;;;;;;3.40;1.02;;;;;;;29.57;34.28;101349.91;4977035;28;20054;-55
2022/08/10 08:34:31;;;;;;;3.53;1.30;;;;;;;29.70;33.47;101345.50;4985086;28;20545;-47
2022/08/10 08:36:59;;;;;;;4.00;1.20;;;;;;;29.88;33.41;101339.94;4984035;28;20084;-53
2022/08/10 08:39:27;;;;;;;2.40;0.88;;;;;;;30.12;32.52;101344.66;4981230;28;20054;-52
2022/08/10 08:48:08;;;;;;;3.95;3.28;;;;;;;30.77;32.81;101335.03;5081104;27;20394;-52
2022/08/10 09:20:07;;;;;;;3.20;1.20;;;;;;;32.56;29.71;101324.13;5006828;28;20419;-50
2022/08/10 09:25:35;;;;;;;4.75;1.15;;;;;;;32.77;29.89;101315.41;5028001;27;20413;-54
2022/08/10 09:28:05;;;;;;;2.92;1.45;;;;;;;33.07;29.28;101311.31;5016099;28;20064;-51
2022/08/10 09:52:37;;;;;;;5.78;2.65;;;;;;;33.29;28.67;101287.25;5029548;28;20508;-53
2022/08/10 09:55:13;;;;;;;3.25;2.00;;;;;;;33.36;29.16;101287.66;5008377;28;20062;-51
2022/08/10 10:00:37;;;;;;;3.90;2.30;;;;;;;33.18;28.01;101280.06;5045719;27;20746;-55
2022/08/10 10:03:43;;;;;;;3.13;1.52;;;;;;;33.16;27.62;101282.06;4990078;28;20046;-49
2022/08/10 10:24:46;;;;;;;4.55;2.30;;;;;;;33.40;27.20;101268.44;5048939;27;20404;-55
2022/08/10 10:27:38;;;;;;;4.57;2.10;;;;;;;33.62;26.78;101266.75;5013309;28;20662;-53
2022/08/10 10:30:09;;;;;;;6.82;2.53;;;;;;;33.83;27.20;101261.41;5016983;28;20113;-54
2022/08/10 10:40:41;;;;;;;3.65;1.90;;;;;;;34.23;25.92;101254.56;5027426;27;20884;-55
2022/08/10 10:46:18;;;;;;;3.40;2.50;;;;;;;34.20;25.86;101257.50;5060298;27;20405;-55
2022/08/10 11:07:45;;;;;;;1.95;0.88;;;;;;;34.15;24.54;101229.31;5035988;27;20418;-48
2022/08/10 11:52:14;;;;;;;2.03;0.93;;;;;;;34.67;24.00;101191.69;5056326;28;21146;-47
2022/08/10 11:54:45;;;;;;;3.85;1.27;;;;;;;34.65;23.78;101198.19;5053556;28;20049;-51
2022/08/10 11:57:17;;;;;;;1.60;0.88;;;;;;;34.61;24.00;101198.44;5044861;28;20500;-51
2022/08/10 12:00:02;;;;;;;2.10;1.30;;;;;;;34.64;24.27;101197.34;5061793;28;20045;-51
2022/08/10 12:07:52;;;;;;;1.27;0.90;;;;;;;34.59;23.67;101194.19;5022556;27;20432;-54
2022/08/10 12:10:39;;;;;;;3.00;1.20;;;;;;;34.64;23.09;101188.44;5015766;28;20077;-51
2022/08/10 12:13:14;;;;;;;2.63;1.67;;;;;;;34.57;23.08;101188.94;5017232;28;20800;-51
2022/08/10 12:18:45;;;;;;;3.42;1.95;;;;;;;34.38;23.13;101180.78;5080731;27;20387;-53
2022/08/10 12:21:17;;;;;;;2.55;1.25;;;;;;;34.39;22.67;101177.09;5027638;28;20044;-50
2022/08/10 12:23:54;;;;;;;1.83;1.58;;;;;;;34.39;22.75;101171.72;5046816;28;20044;-49
2022/08/10 12:29:23;;;;;;;2.45;2.00;;;;;;;34.18;23.06;101160.00;5121463;27;20401;-54
2022/08/10 12:31:58;;;;;;;3.28;2.92;;;;;;;34.05;23.66;101160.19;5042987;28;20045;-52
2022/08/10 12:37:16;;;;;;;5.35;1.95;;;;;;;33.94;24.86;101173.69;5038589;28;20759;-50
2022/08/10 12:39:54;;;;;;;2.05;1.35;;;;;;;33.82;24.37;101160.31;5021461;28;20661;-49
2022/08/10 12:42:49;;;;;;;4.80;1.10;;;;;;;33.74;24.46;101156.56;5020726;28;20607;-51
2022/08/10 12:46:02;;;;;;;3.28;0.98;;;;;;;33.67;24.81;101150.88;5022659;28;20066;-54
2022/08/10 12:48:46;;;;;;;1.98;1.23;;;;;;;33.58;23.80;101158.72;5023369;28;20152;-52
2022/08/10 12:51:20;;;;;;;1.40;0.98;;;;;;;33.65;24.77;101152.81;5023523;28;20045;-54
2022/08/10 12:56:29;;;;;;;3.17;1.50;;;;;;;33.68;24.50;101156.13;5050187;27;20401;-57
2022/08/10 12:58:57;;;;;;;5.20;1.73;;;;;;;33.73;24.78;101150.34;5049198;28;20575;-57
2022/08/10 13:01:31;;;;;;;2.95;1.27;;;;;;;33.66;24.97;101144.66;5031617;28;20400;-51
2022/08/10 13:04:27;;;;;;;6.32;1.50;;;;;;;33.68;24.61;101145.38;5032236;28;20085;-54
2022/08/10 13:06:55;;;;;;;2.63;1.20;;;;;;;33.69;24.87;101138.16;5037478;28;20095;-53
2022/08/10 13:09:24;;;;;;;2.42;1.23;;;;;;;33.51;24.93;101138.72;5034646;28;20555;-53
2022/08/10 13:12:13;;;;;;;3.30;1.52;;;;;;;33.21;24.13;101135.78;5031692;28;20053;-55
2022/08/10 13:15:14;;;;;;;3.67;1.33;;;;;;;33.18;24.99;101129.78;5029510;28;20069;-49
2022/08/10 13:18:04;;;;;;;2.60;1.35;;;;;;;33.18;23.50;101129.78;5033709;28;20069;-52
2022/08/10 13:20:36;;;;;;;2.35;0.70;;;;;;;33.05;23.13;101119.22;5031742;28;20371;-53
2022/08/10 13:23:14;;;;;;;2.65;1.40;;;;;;;33.02;23.52;101124.84;5031203;28;20045;-51
2022/08/10 13:25:44;;;;;;;2.80;1.33;;;;;;;33.04;24.44;101123.75;5022634;28;20524;-53
2022/08/10 13:28:21;;;;;;;2.55;1.25;;;;;;;32.98;24.28;101108.09;5027583;28;20045;-54
2022/08/10 13:31:08;;;;;;;3.60;1.40;;;;;;;33.07;24.10;101115.41;5030176;28;20049;-57
2022/08/10 13:33:46;;;;;;;2.72;0.93;;;;;;;33.18;24.02;101105.63;5031288;28;20042;-54
2022/08/10 13:36:36;;;;;;;5.15;1.50;;;;;;;33.17;23.09;101101.25;5032330;28;20073;-52
2022/08/10 13:39:05;;;;;;;1.98;0.98;;;;;;;33.15;23.80;101103.19;5018996;28;20426;-55
2022/08/10 13:41:42;;;;;;;3.03;1.65;;;;;;;33.11;24.03;101097.25;5019268;28;20220;-55
2022/08/10 13:44:14;;;;;;;2.75;1.33;;;;;;;33.11;23.81;101101.75;5023804;28;20116;-50
2022/08/10 13:46:48;;;;;;;3.20;1.08;;;;;;;33.12;24.00;101085.53;5003548;28;20064;-50
2022/08/10 13:49:17;;;;;;;2.40;1.75;;;;;;;33.19;24.04;101077.81;5029905;28;20054;-52
2022/08/10 13:51:46;;;;;;;2.78;1.20;;;;;;;33.18;23.66;101082.34;5022865;28;20046;-50
2022/08/10 13:54:26;;;;;;;3.42;1.50;;;;;;;33.19;24.19;101078.69;5034765;28;20053;-53
2022/08/10 13:56:55;;;;;;;6.20;1.50;;;;;;;33.24;23.90;101075.63;5021532;28;20044;-50
2022/08/10 13:59:27;;;;;;;3.15;1.55;;;;;;;33.25;23.99;101079.13;5021906;28;20053;-54
2022/08/10 14:02:23;;;;;;;2.72;1.30;;;;;;;33.14;23.89;101077.34;5020676;28;20069;-46
2022/08/10 14:04:53;;;;;;;2.08;1.05;;;;;;;33.15;23.95;101082.59;5021335;28;20042;-55
2022/08/10 14:07:21;;;;;;;2.63;1.13;;;;;;;33.17;23.21;101079.78;5010886;28;20097;-54
2022/08/10 14:09:50;;;;;;;1.65;1.45;;;;;;;33.18;23.03;101065.38;5009736;28;20038;-51
2022/08/10 14:12:19;;;;;;;4.40;1.63;;;;;;;33.14;22.75;101069.31;5009257;28;20057;-52
2022/08/10 14:14:59;;;;;;;2.25;1.42;;;;;;;33.08;22.71;101067.97;5009144;28;20057;-54
2022/08/10 14:17:26;;;;;;;;;;;;;;;32.83;24.11;101070.81;5007498;28;20046;-53
2022/08/10 14:19:55;;;;;;;3.20;1.17;;;;;;;33.10;23.96;101067.84;5006563;28;19928;-53
2022/08/10 14:22:24;;;;;;;2.08;1.27;;;;;;;33.13;23.41;101056.88;5001969;28;20069;-54
2022/08/10 14:25:10;;;;;;;2.60;1.27;;;;;;;33.12;23.23;101060.53;5006963;28;20471;-52
2022/08/10 14:27:40;;;;;;;2.75;1.05;;;;;;;33.17;23.65;101050.25;4991041;28;20046;-50
2022/08/10 14:30:29;;;;;;;3.40;1.85;;;;;;;33.22;24.13;101050.72;5005754;28;20131;-55
2022/08/10 14:32:59;;;;;;;4.78;0.88;;;;;;;33.20;23.62;101050.00;5004298;28;20050;-53
2022/08/10 14:35:27;;;;;;;3.38;1.48;;;;;;;33.16;23.72;101045.88;5007981;28;20073;-54
2022/08/10 14:38:16;;;;;;;;;;;;;;;32.91;24.56;101042.50;5001569;28;20078;-53
2022/08/10 14:40:49;;;;;;;3.95;1.60;;;;;;;33.07;24.43;101029.56;5004849;28;19933;-50
2022/08/10 14:43:18;;;;;;;2.70;1.73;;;;;;;33.06;23.74;101030.53;5008131;28;20150;-51
2022/08/10 14:45:59;;;;;;;5.82;1.00;;;;;;;32.94;23.57;101032.41;5002201;28;20041;-52
2022/08/10 14:48:31;;;;;;;2.95;0.70;;;;;;;32.88;23.46;101026.66;5003735;28;20051;-56
2022/08/10 14:51:00;;;;;;;1.65;0.90;;;;;;;32.89;23.27;101023.84;5006428;28;20088;-54
2022/08/10 14:53:34;;;;;;;2.45;1.50;;;;;;;32.86;23.05;101021.47;4996960;28;20132;-51
2022/08/10 14:56:07;;;;;;;1.95;1.02;;;;;;;32.85;22.40;101022.41;4997025;28;20080;-54
2022/08/10 14:58:38;;;;;;;3.70;1.33;;;;;;;32.77;22.78;101020.38;5002175;28;20057;-48
2022/08/10 15:01:25;;;;;;;1.77;1.20;;;;;;;32.75;23.31;101011.59;4999708;28;20142;-56
2022/08/10 15:04:15;;;;;;;3.15;1.77;;;;;;;32.83;23.50;101003.75;4998998;28;20133;-54
2022/08/10 15:09:30;;;;;;;4.00;2.45;;;;;;;32.93;23.26;100995.81;5026889;28;20411;-52
2022/08/10 15:12:18;;;;;;;2.50;2.08;;;;;;;32.81;22.82;100999.50;4981380;28;20117;-54
2022/08/10 15:14:54;;;;;;;4.15;2.15;;;;;;;32.75;22.86;101000.88;4993908;28;20065;-55
2022/08/10 15:17:25;;;;;;;2.60;1.95;;;;;;;32.71;23.08;101002.09;4981431;28;20069;-51
2022/08/10 15:19:56;;;;;;;2.78;2.55;;;;;;;32.67;22.68;100987.25;4977825;28;20046;-52
2022/08/10 15:22:45;;;;;;;3.47;2.83;;;;;;;32.63;23.23;100991.16;4978222;28;20134;-49